KAQX

Allendale County Airport

Allendale, South Carolina, USA
METAR KAQX 152055Z AUTO 00000KT 10SM SCT050 32/20 A3000 RMK AO2
Observed Flight Rules
Jul-15 @ 20:55 UTC (14 minutes ago) Visual Flight Rules
Visibility Clouds
10 miles
  • Scattered at 5,000' AGL
Temperatures Readings
Current 32°C / 90°F
Dewpoint 20°C / 68°F
Humidity 49%
Altimeter 30" Hg
Pressure 1016 hPa
Elevation 49
METAR KAQX 152055Z AUTO 00000KT 10SM SCT050 32/20 A3000 RMK AO2
Observed Flight Rules
Jul-15 @ 20:55 UTC
(14 minutes ago)
VFR
Clouds
  • Scattered at 5,000' AGL
Temperature Dewpoint
32°C / 90°F 20°C / 68°F
Humidity Altimeter Pressure
49% 30" Hg 1016 hPa